sensor_id;sensor_type;location;lat;lon;timestamp;temperature;humidity
292;DHT22;23311;48.776;9.162;2024-03-02T00:00:51;6.70;95.50
292;DHT22;23311;48.776;9.162;2024-03-02T00:03:20;6.60;95.50
292;DHT22;23311;48.776;9.162;2024-03-02T00:05:49;6.70;95.50
292;DHT22;23311;48.776;9.162;2024-03-02T00:08:24;6.70;95.50
292;DHT22;23311;48.776;9.162;2024-03-02T00:10:57;6.80;95.50
292;DHT22;23311;48.776;9.162;2024-03-02T00:13:26;6.70;95.50
292;DHT22;23311;48.776;9.162;2024-03-02T00:15:56;6.80;95.50
292;DHT22;23311;48.776;9.162;2024-03-02T00:18:26;6.70;95.50
292;DHT22;23311;48.776;9.162;2024-03-02T00:20:55;6.60;95.50
292;DHT22;23311;48.776;9.162;2024-03-02T00:23:29;6.70;95.50
292;DHT22;23311;48.776;9.162;2024-03-02T00:25:58;6.70;95.50
292;DHT22;23311;48.776;9.162;2024-03-02T00:28:30;6.60;95.50
292;DHT22;23311;48.776;9.162;2024-03-02T00:31:03;6.50;95.50
292;DHT22;23311;48.776;9.162;2024-03-02T00:33:33;6.50;95.50
292;DHT22;23311;48.776;9.162;2024-03-02T00:36:02;6.40;95.50
292;DHT22;23311;48.776;9.162;2024-03-02T00:38:33;6.40;95.50
292;DHT22;23311;48.776;9.162;2024-03-02T00:41:05;6.30;95.50
292;DHT22;23311;48.776;9.162;2024-03-02T00:43:47;6.30;95.50
292;DHT22;23311;48.776;9.162;2024-03-02T00:46:22;6.40;95.50
292;DHT22;23311;48.776;9.162;2024-03-02T00:48:54;6.40;95.50
292;DHT22;23311;48.776;9.162;2024-03-02T00:51:25;6.40;95.50
292;DHT22;23311;48.776;9.162;2024-03-02T00:53:57;6.40;95.50
292;DHT22;23311;48.776;9.162;2024-03-02T00:56:26;6.30;95.50
292;DHT22;23311;48.776;9.162;2024-03-02T00:58:54;6.20;95.50
292;DHT22;23311;48.776;9.162;2024-03-02T01:01:23;6.40;95.50
292;DHT22;23311;48.776;9.162;2024-03-02T01:03:51;6.40;95.50
292;DHT22;23311;48.776;9.162;2024-03-02T01:06:19;6.40;95.50
292;DHT22;23311;48.776;9.162;2024-03-02T01:08:49;6.50;95.50
292;DHT22;23311;48.776;9.162;2024-03-02T01:11:20;6.60;95.50
292;DHT22;23311;48.776;9.162;2024-03-02T01:13:50;6.60;95.50
292;DHT22;23311;48.776;9.162;2024-03-02T01:16:19;6.50;95.50
292;DHT22;23311;48.776;9.162;2024-03-02T01:18:47;6.50;95.50
292;DHT22;23311;48.776;9.162;2024-03-02T01:21:16;6.40;95.50
292;DHT22;23311;48.776;9.162;2024-03-02T01:23:44;6.50;95.50
292;DHT22;23311;48.776;9.162;2024-03-02T01:26:13;6.50;95.50
292;DHT22;23311;48.776;9.162;2024-03-02T01:28:42;6.50;95.50
292;DHT22;23311;48.776;9.162;2024-03-02T01:31:10;6.40;95.50
292;DHT22;23311;48.776;9.162;2024-03-02T01:33:38;6.40;95.50
292;DHT22;23311;48.776;9.162;2024-03-02T01:36:06;6.40;95.50
292;DHT22;23311;48.776;9.162;2024-03-02T01:38:35;6.40;95.50
292;DHT22;23311;48.776;9.162;2024-03-02T01:41:03;6.30;95.50
292;DHT22;23311;48.776;9.162;2024-03-02T01:43:31;6.10;95.50
292;DHT22;23311;48.776;9.162;2024-03-02T01:46:01;6.00;95.50
292;DHT22;23311;48.776;9.162;2024-03-02T01:48:29;6.10;95.50
292;DHT22;23311;48.776;9.162;2024-03-02T01:50:58;6.20;95.50
292;DHT22;23311;48.776;9.162;2024-03-02T01:53:26;6.00;95.50
292;DHT22;23311;48.776;9.162;2024-03-02T01:55:55;5.70;95.50
292;DHT22;23311;48.776;9.162;2024-03-02T01:58:23;5.80;95.50
292;DHT22;23311;48.776;9.162;2024-03-02T02:00:51;5.70;95.50
292;DHT22;23311;48.776;9.162;2024-03-02T02:03:21;5.50;95.50
292;DHT22;23311;48.776;9.162;2024-03-02T02:05:49;5.50;95.50
292;DHT22;23311;48.776;9.162;2024-03-02T02:08:17;5.60;95.50
292;DHT22;23311;48.776;9.162;2024-03-02T02:10:46;5.60;95.50
292;DHT22;23311;48.776;9.162;2024-03-02T02:13:14;5.40;95.50
292;DHT22;23311;48.776;9.162;2024-03-02T02:15:42;5.30;95.50
292;DHT22;23311;48.776;9.162;2024-03-02T02:18:10;5.20;95.50
292;DHT22;23311;48.776;9.162;2024-03-02T02:20:40;5.20;95.50
292;DHT22;23311;48.776;9.162;2024-03-02T02:23:09;5.20;95.50
292;DHT22;23311;48.776;9.162;2024-03-02T02:25:39;5.20;95.50
292;DHT22;23311;48.776;9.162;2024-03-02T02:28:07;5.20;95.50
292;DHT22;23311;48.776;9.162;2024-03-02T02:30:36;5.20;95.50
292;DHT22;23311;48.776;9.162;2024-03-02T02:33:04;5.10;95.50
292;DHT22;23311;48.776;9.162;2024-03-02T02:35:32;5.00;95.50
292;DHT22;23311;48.776;9.162;2024-03-02T02:38:01;4.80;95.50
292;DHT22;23311;48.776;9.162;2024-03-02T02:40:31;4.70;95.50
292;DHT22;23311;48.776;9.162;2024-03-02T02:43:00;4.70;95.50
292;DHT22;23311;48.776;9.162;2024-03-02T02:45:28;4.50;95.50
292;DHT22;23311;48.776;9.162;2024-03-02T02:47:56;4.70;95.50
292;DHT22;23311;48.776;9.162;2024-03-02T02:50:24;4.70;95.50
292;DHT22;23311;48.776;9.162;2024-03-02T02:52:53;4.70;95.50
292;DHT22;23311;48.776;9.162;2024-03-02T02:55:21;4.50;95.50
292;DHT22;23311;48.776;9.162;2024-03-02T02:57:50;4.40;95.50
292;DHT22;23311;48.776;9.162;2024-03-02T03:00:19;4.40;95.50
292;DHT22;23311;48.776;9.162;2024-03-02T03:02:49;4.30;95.50
292;DHT22;23311;48.776;9.162;2024-03-02T03:05:18;4.30;95.50
292;DHT22;23311;48.776;9.162;2024-03-02T03:07:46;4.20;95.50
292;DHT22;23311;48.776;9.162;2024-03-02T03:10:17;4.10;95.50
292;DHT22;23311;48.776;9.162;2024-03-02T03:12:50;4.20;95.50
292;DHT22;23311;48.776;9.162;2024-03-02T03:15:18;4.20;95.50
292;DHT22;23311;48.776;9.162;2024-03-02T03:17:47;4.20;95.50
292;DHT22;23311;48.776;9.162;2024-03-02T03:20:15;4.60;95.50
292;DHT22;23311;48.776;9.162;2024-03-02T03:22:43;4.50;95.50
292;DHT22;23311;48.776;9.162;2024-03-02T03:25:11;4.40;95.50
292;DHT22;23311;48.776;9.162;2024-03-02T03:27:40;4.30;95.50
292;DHT22;23311;48.776;9.162;2024-03-02T03:30:11;4.20;95.50
292;DHT22;23311;48.776;9.162;2024-03-02T03:32:39;4.20;95.50
292;DHT22;23311;48.776;9.162;2024-03-02T03:35:08;4.30;95.50
292;DHT22;23311;48.776;9.162;2024-03-02T03:37:37;4.20;95.50
292;DHT22;23311;48.776;9.162;2024-03-02T03:40:06;4.10;95.50
292;DHT22;23311;48.776;9.162;2024-03-02T03:42:37;4.10;95.50
292;DHT22;23311;48.776;9.162;2024-03-02T03:45:07;4.10;95.50
292;DHT22;23311;48.776;9.162;2024-03-02T03:47:37;4.10;95.50
292;DHT22;23311;48.776;9.162;2024-03-02T03:50:06;4.00;95.50
292;DHT22;23311;48.776;9.162;2024-03-02T03:52:35;4.00;95.50
292;DHT22;23311;48.776;9.162;2024-03-02T03:55:04;4.10;95.50
292;DHT22;23311;48.776;9.162;2024-03-02T03:57:33;4.00;95.50
292;DHT22;23311;48.776;9.162;2024-03-02T04:00:02;4.00;95.50
292;DHT22;23311;48.776;9.162;2024-03-02T04:02:30;3.90;95.50
292;DHT22;23311;48.776;9.162;2024-03-02T04:05:00;3.90;95.50
292;DHT22;23311;48.776;9.162;2024-03-02T04:07:31;4.10;95.50
292;DHT22;23311;48.776;9.162;2024-03-02T04:10:00;4.30;95.50
292;DHT22;23311;48.776;9.162;2024-03-02T04:12:28;4.20;95.50
292;DHT22;23311;48.776;9.162;2024-03-02T04:14:56;4.30;95.50
292;DHT22;23311;48.776;9.162;2024-03-02T04:17:24;4.30;95.50
292;DHT22;23311;48.776;9.162;2024-03-02T04:19:53;4.00;95.50
292;DHT22;23311;48.776;9.162;2024-03-02T04:22:22;3.90;95.50
292;DHT22;23311;48.776;9.162;2024-03-02T04:24:52;3.80;95.50
292;DHT22;23311;48.776;9.162;2024-03-02T04:27:20;3.80;95.50
292;DHT22;23311;48.776;9.162;2024-03-02T04:29:48;3.80;95.50
292;DHT22;23311;48.776;9.162;2024-03-02T04:32:16;4.10;95.50
292;DHT22;23311;48.776;9.162;2024-03-02T04:34:46;4.20;95.50
292;DHT22;23311;48.776;9.162;2024-03-02T04:37:14;4.30;95.50
292;DHT22;23311;48.776;9.162;2024-03-02T04:39:44;4.30;95.50
292;DHT22;23311;48.776;9.162;2024-03-02T04:42:12;4.20;95.50
292;DHT22;23311;48.776;9.162;2024-03-02T04:44:40;4.00;95.50
292;DHT22;23311;48.776;9.162;2024-03-02T04:47:08;4.20;95.50
292;DHT22;23311;48.776;9.162;2024-03-02T04:49:36;4.20;95.50
292;DHT22;23311;48.776;9.162;2024-03-02T04:52:05;4.00;95.50
292;DHT22;23311;48.776;9.162;2024-03-02T04:54:33;4.00;95.50
292;DHT22;23311;48.776;9.162;2024-03-02T04:57:24;4.10;95.50
292;DHT22;23311;48.776;9.162;2024-03-02T04:59:52;4.20;95.50
292;DHT22;23311;48.776;9.162;2024-03-02T05:02:20;4.40;95.50
292;DHT22;23311;48.776;9.162;2024-03-02T05:04:48;4.50;95.50
292;DHT22;23311;48.776;9.162;2024-03-02T05:07:17;4.50;95.50
292;DHT22;23311;48.776;9.162;2024-03-02T05:09:45;4.50;95.50
292;DHT22;23311;48.776;9.162;2024-03-02T05:12:15;4.50;95.50
292;DHT22;23311;48.776;9.162;2024-03-02T05:15:16;4.60;95.50
292;DHT22;23311;48.776;9.162;2024-03-02T05:17:44;4.90;95.50
292;DHT22;23311;48.776;9.162;2024-03-02T05:20:12;4.90;95.50
292;DHT22;23311;48.776;9.162;2024-03-02T05:22:41;4.90;95.50
292;DHT22;23311;48.776;9.162;2024-03-02T05:25:09;4.90;95.50
292;DHT22;23311;48.776;9.162;2024-03-02T05:27:37;5.00;95.50
292;DHT22;23311;48.776;9.162;2024-03-02T05:30:07;5.20;95.50
292;DHT22;23311;48.776;9.162;2024-03-02T05:32:36;5.30;95.50
292;DHT22;23311;48.776;9.162;2024-03-02T05:35:06;5.20;95.50
292;DHT22;23311;48.776;9.162;2024-03-02T05:37:35;5.10;95.50
292;DHT22;23311;48.776;9.162;2024-03-02T05:40:04;5.00;95.50
292;DHT22;23311;48.776;9.162;2024-03-02T05:42:32;4.90;95.50
292;DHT22;23311;48.776;9.162;2024-03-02T05:45:01;4.80;95.50
292;DHT22;23311;48.776;9.162;2024-03-02T05:47:29;4.70;95.50
292;DHT22;23311;48.776;9.162;2024-03-02T05:49:59;4.70;95.50
292;DHT22;23311;48.776;9.162;2024-03-02T05:52:27;4.50;95.50
292;DHT22;23311;48.776;9.162;2024-03-02T05:54:55;4.50;95.50
292;DHT22;23311;48.776;9.162;2024-03-02T05:57:24;4.60;95.50
292;DHT22;23311;48.776;9.162;2024-03-02T06:00:12;4.70;95.50
292;DHT22;23311;48.776;9.162;2024-03-02T06:02:44;4.70;95.50
292;DHT22;23311;48.776;9.162;2024-03-02T06:05:14;4.90;95.50
292;DHT22;23311;48.776;9.162;2024-03-02T06:07:44;4.90;95.50
292;DHT22;23311;48.776;9.162;2024-03-02T06:10:12;4.90;95.50
292;DHT22;23311;48.776;9.162;2024-03-02T06:12:41;4.90;95.50
292;DHT22;23311;48.776;9.162;2024-03-02T06:15:10;4.80;95.50
292;DHT22;23311;48.776;9.162;2024-03-02T06:17:38;4.80;95.50
292;DHT22;23311;48.776;9.162;2024-03-02T06:20:07;4.70;95.50
292;DHT22;23311;48.776;9.162;2024-03-02T06:22:37;4.70;95.50
292;DHT22;23311;48.776;9.162;2024-03-02T06:25:06;4.60;95.50
292;DHT22;23311;48.776;9.162;2024-03-02T06:27:34;4.50;95.50
292;DHT22;23311;48.776;9.162;2024-03-02T06:30:04;4.60;95.50
292;DHT22;23311;48.776;9.162;2024-03-02T06:32:32;4.70;95.50
292;DHT22;23311;48.776;9.162;2024-03-02T06:35:00;4.90;95.50
292;DHT22;23311;48.776;9.162;2024-03-02T06:37:28;5.00;95.50
292;DHT22;23311;48.776;9.162;2024-03-02T06:39:58;5.10;95.50
292;DHT22;23311;48.776;9.162;2024-03-02T06:42:27;5.20;95.50
292;DHT22;23311;48.776;9.162;2024-03-02T06:45:01;5.50;95.50
292;DHT22;23311;48.776;9.162;2024-03-02T06:47:29;5.60;95.50
292;DHT22;23311;48.776;9.162;2024-03-02T06:49:58;5.80;95.50
292;DHT22;23311;48.776;9.162;2024-03-02T06:52:26;5.90;95.50
292;DHT22;23311;48.776;9.162;2024-03-02T06:54:54;6.00;95.50
292;DHT22;23311;48.776;9.162;2024-03-02T06:57:24;6.00;95.50
292;DHT22;23311;48.776;9.162;2024-03-02T06:59:52;6.10;95.50
292;DHT22;23311;48.776;9.162;2024-03-02T07:02:24;6.10;95.50
292;DHT22;23311;48.776;9.162;2024-03-02T07:04:54;6.20;95.50
292;DHT22;23311;48.776;9.162;2024-03-02T07:07:22;6.30;95.50
292;DHT22;23311;48.776;9.162;2024-03-02T07:09:50;6.40;95.50
292;DHT22;23311;48.776;9.162;2024-03-02T07:12:19;6.50;95.50
292;DHT22;23311;48.776;9.162;2024-03-02T07:14:48;6.50;95.50
292;DHT22;23311;48.776;9.162;2024-03-02T07:17:38;6.60;95.50
292;DHT22;23311;48.776;9.162;2024-03-02T07:20:06;6.70;95.50
292;DHT22;23311;48.776;9.162;2024-03-02T07:22:34;6.90;95.50
292;DHT22;23311;48.776;9.162;2024-03-02T07:25:08;7.00;95.50
292;DHT22;23311;48.776;9.162;2024-03-02T07:27:56;7.20;95.50
292;DHT22;23311;48.776;9.162;2024-03-02T07:30:26;7.20;95.50
292;DHT22;23311;48.776;9.162;2024-03-02T07:32:57;7.40;95.50
292;DHT22;23311;48.776;9.162;2024-03-02T07:35:25;7.50;95.50
292;DHT22;23311;48.776;9.162;2024-03-02T07:37:54;7.70;95.50
292;DHT22;23311;48.776;9.162;2024-03-02T07:40:23;7.80;95.50
292;DHT22;23311;48.776;9.162;2024-03-02T07:42:52;7.70;95.50
292;DHT22;23311;48.776;9.162;2024-03-02T07:45:20;7.70;95.50
292;DHT22;23311;48.776;9.162;2024-03-02T07:47:49;7.80;95.50
292;DHT22;23311;48.776;9.162;2024-03-02T07:50:18;7.80;95.50
292;DHT22;23311;48.776;9.162;2024-03-02T07:52:46;7.80;95.50
292;DHT22;23311;48.776;9.162;2024-03-02T07:55:14;7.80;95.50
292;DHT22;23311;48.776;9.162;2024-03-02T07:57:43;7.90;95.50
292;DHT22;23311;48.776;9.162;2024-03-02T08:00:12;8.00;95.50
292;DHT22;23311;48.776;9.162;2024-03-02T08:02:41;7.90;95.50
292;DHT22;23311;48.776;9.162;2024-03-02T08:05:12;7.90;95.50
292;DHT22;23311;48.776;9.162;2024-03-02T08:07:40;8.00;95.50
292;DHT22;23311;48.776;9.162;2024-03-02T08:10:09;8.00;95.50
292;DHT22;23311;48.776;9.162;2024-03-02T08:12:37;7.90;95.50
292;DHT22;23311;48.776;9.162;2024-03-02T08:15:06;8.00;95.50
292;DHT22;23311;48.776;9.162;2024-03-02T08:17:34;8.00;95.50
292;DHT22;23311;48.776;9.162;2024-03-02T08:20:06;8.10;95.50
292;DHT22;23311;48.776;9.162;2024-03-02T08:22:36;8.00;95.50
292;DHT22;23311;48.776;9.162;2024-03-02T08:25:05;8.00;95.50
292;DHT22;23311;48.776;9.162;2024-03-02T08:27:33;8.00;95.50
292;DHT22;23311;48.776;9.162;2024-03-02T08:30:02;8.00;95.50
292;DHT22;23311;48.776;9.162;2024-03-02T08:32:33;8.10;95.50
292;DHT22;23311;48.776;9.162;2024-03-02T08:35:01;8.20;95.50
292;DHT22;23311;48.776;9.162;2024-03-02T08:37:30;8.30;95.50
292;DHT22;23311;48.776;9.162;2024-03-02T08:39:59;8.30;95.50
292;DHT22;23311;48.776;9.162;2024-03-02T08:42:28;8.40;95.50
292;DHT22;23311;48.776;9.162;2024-03-02T08:44:56;8.50;95.50
292;DHT22;23311;48.776;9.162;2024-03-02T08:47:25;8.60;95.50
292;DHT22;23311;48.776;9.162;2024-03-02T08:49:53;8.60;95.50
292;DHT22;23311;48.776;9.162;2024-03-02T08:52:24;8.70;95.50
292;DHT22;23311;48.776;9.162;2024-03-02T08:54:52;8.80;95.50
292;DHT22;23311;48.776;9.162;2024-03-02T08:57:22;8.90;95.50
292;DHT22;23311;48.776;9.162;2024-03-02T08:59:50;9.00;95.50
292;DHT22;23311;48.776;9.162;2024-03-02T09:02:18;9.00;95.50
292;DHT22;23311;48.776;9.162;2024-03-02T09:04:46;9.00;95.50
292;DHT22;23311;48.776;9.162;2024-03-02T09:07:14;9.10;95.50
292;DHT22;23311;48.776;9.162;2024-03-02T09:09:43;9.20;95.50
292;DHT22;23311;48.776;9.162;2024-03-02T09:12:11;9.30;95.50
292;DHT22;23311;48.776;9.162;2024-03-02T09:14:41;9.40;95.50
292;DHT22;23311;48.776;9.162;2024-03-02T09:17:09;9.50;95.50
292;DHT22;23311;48.776;9.162;2024-03-02T09:19:39;9.60;95.50
292;DHT22;23311;48.776;9.162;2024-03-02T09:22:07;9.70;95.50
292;DHT22;23311;48.776;9.162;2024-03-02T09:24:37;9.80;95.50
292;DHT22;23311;48.776;9.162;2024-03-02T09:27:05;9.90;95.50
292;DHT22;23311;48.776;9.162;2024-03-02T09:29:33;10.00;95.50
292;DHT22;23311;48.776;9.162;2024-03-02T09:32:03;10.10;95.50
292;DHT22;23311;48.776;9.162;2024-03-02T09:34:31;10.20;95.50
292;DHT22;23311;48.776;9.162;2024-03-02T09:37:01;10.40;95.50
292;DHT22;23311;48.776;9.162;2024-03-02T09:39:30;10.60;95.50
292;DHT22;23311;48.776;9.162;2024-03-02T09:41:59;10.60;95.50
292;DHT22;23311;48.776;9.162;2024-03-02T09:44:27;10.80;95.50
292;DHT22;23311;48.776;9.162;2024-03-02T09:46:56;10.90;95.50
292;DHT22;23311;48.776;9.162;2024-03-02T09:49:25;11.10;95.50
292;DHT22;23311;48.776;9.162;2024-03-02T09:51:54;11.30;95.50
292;DHT22;23311;48.776;9.162;2024-03-02T09:54:22;11.50;95.50
292;DHT22;23311;48.776;9.162;2024-03-02T09:56:50;11.50;95.50
292;DHT22;23311;48.776;9.162;2024-03-02T09:59:19;11.50;95.50
292;DHT22;23311;48.776;9.162;2024-03-02T10:01:57;11.60;95.50
292;DHT22;23311;48.776;9.162;2024-03-02T10:04:29;11.70;95.50
292;DHT22;23311;48.776;9.162;2024-03-02T10:07:14;11.70;95.50
292;DHT22;23311;48.776;9.162;2024-03-02T10:09:44;11.80;95.50
292;DHT22;23311;48.776;9.162;2024-03-02T10:12:14;11.90;95.50
292;DHT22;23311;48.776;9.162;2024-03-02T10:14:43;12.00;95.50
292;DHT22;23311;48.776;9.162;2024-03-02T10:17:13;12.10;95.50
292;DHT22;23311;48.776;9.162;2024-03-02T10:19:44;12.10;95.50
292;DHT22;23311;48.776;9.162;2024-03-02T10:22:12;12.30;95.50
292;DHT22;23311;48.776;9.162;2024-03-02T10:24:41;12.30;95.50
292;DHT22;23311;48.776;9.162;2024-03-02T10:27:15;12.40;95.50
292;DHT22;23311;48.776;9.162;2024-03-02T10:29:46;12.50;95.50
292;DHT22;23311;48.776;9.162;2024-03-02T10:32:15;12.80;95.50
292;DHT22;23311;48.776;9.162;2024-03-02T10:34:46;13.40;95.50
292;DHT22;23311;48.776;9.162;2024-03-02T10:37:15;14.80;95.50
292;DHT22;23311;48.776;9.162;2024-03-02T10:39:46;16.20;92.30
292;DHT22;23311;48.776;9.162;2024-03-02T10:42:16;17.50;88.10
292;DHT22;23311;48.776;9.162;2024-03-02T10:44:45;17.50;86.60
292;DHT22;23311;48.776;9.162;2024-03-02T10:47:14;17.20;86.70
292;DHT22;23311;48.776;9.162;2024-03-02T10:49:46;16.30;88.10
292;DHT22;23311;48.776;9.162;2024-03-02T10:52:15;15.20;90.50
292;DHT22;23311;48.776;9.162;2024-03-02T10:54:44;14.50;92.70
292;DHT22;23311;48.776;9.162;2024-03-02T10:57:14;14.10;94.30
292;DHT22;23311;48.776;9.162;2024-03-02T10:59:52;13.90;95.10
292;DHT22;23311;48.776;9.162;2024-03-02T11:02:21;13.80;95.00
292;DHT22;23311;48.776;9.162;2024-03-02T11:04:55;14.00;94.80
292;DHT22;23311;48.776;9.162;2024-03-02T11:07:25;14.30;94.40
292;DHT22;23311;48.776;9.162;2024-03-02T11:09:59;14.80;94.00
292;DHT22;23311;48.776;9.162;2024-03-02T11:12:29;15.10;93.20
292;DHT22;23311;48.776;9.162;2024-03-02T11:14:58;15.30;92.90
292;DHT22;23311;48.776;9.162;2024-03-02T11:17:26;15.70;92.20
292;DHT22;23311;48.776;9.162;2024-03-02T11:19:57;16.20;90.90
292;DHT22;23311;48.776;9.162;2024-03-02T11:22:26;17.00;88.80
292;DHT22;23311;48.776;9.162;2024-03-02T11:24:54;17.30;87.60
292;DHT22;23311;48.776;9.162;2024-03-02T11:28:00;17.60;87.20
292;DHT22;23311;48.776;9.162;2024-03-02T11:30:51;17.90;85.70
292;DHT22;23311;48.776;9.162;2024-03-02T11:33:24;17.20;85.40
292;DHT22;23311;48.776;9.162;2024-03-02T11:35:56;16.70;87.10
292;DHT22;23311;48.776;9.162;2024-03-02T11:38:30;16.40;87.60
292;DHT22;23311;48.776;9.162;2024-03-02T11:41:00;16.20;87.50
292;DHT22;23311;48.776;9.162;2024-03-02T11:43:29;16.20;86.90
292;DHT22;23311;48.776;9.162;2024-03-02T11:45:57;16.30;85.80
292;DHT22;23311;48.776;9.162;2024-03-02T11:48:26;16.30;85.30
292;DHT22;23311;48.776;9.162;2024-03-02T11:50:58;16.80;84.50
292;DHT22;23311;48.776;9.162;2024-03-02T11:53:28;17.40;83.00
292;DHT22;23311;48.776;9.162;2024-03-02T11:56:01;18.00;81.20
292;DHT22;23311;48.776;9.162;2024-03-02T11:58:30;17.90;80.30
292;DHT22;23311;48.776;9.162;2024-03-02T12:00:59;17.70;80.60
292;DHT22;23311;48.776;9.162;2024-03-02T12:03:27;17.50;81.20
292;DHT22;23311;48.776;9.162;2024-03-02T12:05:57;17.60;81.20
292;DHT22;23311;48.776;9.162;2024-03-02T12:08:27;17.80;80.70
292;DHT22;23311;48.776;9.162;2024-03-02T12:10:57;17.80;80.80
292;DHT22;23311;48.776;9.162;2024-03-02T12:13:29;17.90;80.60
292;DHT22;23311;48.776;9.162;2024-03-02T12:15:58;17.80;80.60
292;DHT22;23311;48.776;9.162;2024-03-02T12:18:29;17.50;80.20
292;DHT22;23311;48.776;9.162;2024-03-02T12:20:58;17.50;81.00
292;DHT22;23311;48.776;9.162;2024-03-02T12:23:27;18.10;80.30
292;DHT22;23311;48.776;9.162;2024-03-02T12:25:55;18.40;79.40
292;DHT22;23311;48.776;9.162;2024-03-02T12:28:24;19.00;79.60
292;DHT22;23311;48.776;9.162;2024-03-02T12:30:52;19.60;77.30
292;DHT22;23311;48.776;9.162;2024-03-02T12:33:21;19.10;77.60
292;DHT22;23311;48.776;9.162;2024-03-02T12:35:51;19.70;76.20
292;DHT22;23311;48.776;9.162;2024-03-02T12:38:21;19.60;75.70
292;DHT22;23311;48.776;9.162;2024-03-02T12:40:52;19.50;75.70
292;DHT22;23311;48.776;9.162;2024-03-02T12:43:20;19.00;76.30
292;DHT22;23311;48.776;9.162;2024-03-02T12:45:50;18.80;77.20
292;DHT22;23311;48.776;9.162;2024-03-02T12:48:18;18.80;77.20
292;DHT22;23311;48.776;9.162;2024-03-02T12:50:46;19.00;77.20
292;DHT22;23311;48.776;9.162;2024-03-02T12:53:15;19.00;76.30
292;DHT22;23311;48.776;9.162;2024-03-02T12:55:45;19.00;76.30
292;DHT22;23311;48.776;9.162;2024-03-02T12:58:18;18.90;77.30
292;DHT22;23311;48.776;9.162;2024-03-02T13:00:46;19.10;77.20
292;DHT22;23311;48.776;9.162;2024-03-02T13:03:17;19.40;76.60
292;DHT22;23311;48.776;9.162;2024-03-02T13:05:50;19.30;76.60
292;DHT22;23311;48.776;9.162;2024-03-02T13:08:20;18.90;77.40
292;DHT22;23311;48.776;9.162;2024-03-02T13:10:50;19.30;77.30
292;DHT22;23311;48.776;9.162;2024-03-02T13:13:18;19.70;76.20
292;DHT22;23311;48.776;9.162;2024-03-02T13:15:46;18.90;77.10
292;DHT22;23311;48.776;9.162;2024-03-02T13:18:14;18.50;77.70
292;DHT22;23311;48.776;9.162;2024-03-02T13:20:46;18.30;78.10
292;DHT22;23311;48.776;9.162;2024-03-02T13:23:14;18.10;78.40
292;DHT22;23311;48.776;9.162;2024-03-02T13:25:45;17.90;79.00
292;DHT22;23311;48.776;9.162;2024-03-02T13:28:18;18.10;78.90
292;DHT22;23311;48.776;9.162;2024-03-02T13:30:46;18.20;78.60
292;DHT22;23311;48.776;9.162;2024-03-02T13:33:14;18.70;77.80
292;DHT22;23311;48.776;9.162;2024-03-02T13:35:46;19.10;77.00
292;DHT22;23311;48.776;9.162;2024-03-02T13:38:14;19.30;76.40
292;DHT22;23311;48.776;9.162;2024-03-02T13:40:43;19.20;76.10
292;DHT22;23311;48.776;9.162;2024-03-02T13:43:11;19.30;76.30
292;DHT22;23311;48.776;9.162;2024-03-02T13:45:42;18.30;77.60
292;DHT22;23311;48.776;9.162;2024-03-02T13:48:11;17.70;79.30
292;DHT22;23311;48.776;9.162;2024-03-02T13:50:39;17.30;79.70
292;DHT22;23311;48.776;9.162;2024-03-02T13:53:07;17.10;80.70
292;DHT22;23311;48.776;9.162;2024-03-02T13:55:37;16.80;81.70
292;DHT22;23311;48.776;9.162;2024-03-02T13:58:05;16.70;81.60
292;DHT22;23311;48.776;9.162;2024-03-02T14:00:33;16.50;82.10
292;DHT22;23311;48.776;9.162;2024-03-02T14:03:03;16.50;82.10
292;DHT22;23311;48.776;9.162;2024-03-02T14:05:32;16.50;81.80
292;DHT22;23311;48.776;9.162;2024-03-02T14:08:00;16.40;81.70
292;DHT22;23311;48.776;9.162;2024-03-02T14:10:28;16.30;82.20
292;DHT22;23311;48.776;9.162;2024-03-02T14:12:56;16.20;82.70
292;DHT22;23311;48.776;9.162;2024-03-02T14:15:25;16.10;82.60
292;DHT22;23311;48.776;9.162;2024-03-02T14:17:53;16.10;82.90
292;DHT22;23311;48.776;9.162;2024-03-02T14:20:23;16.00;83.10
292;DHT22;23311;48.776;9.162;2024-03-02T14:22:51;16.00;83.10
292;DHT22;23311;48.776;9.162;2024-03-02T14:25:20;16.00;83.00
292;DHT22;23311;48.776;9.162;2024-03-02T14:27:48;16.00;82.60
292;DHT22;23311;48.776;9.162;2024-03-02T14:30:36;16.00;82.10
292;DHT22;23311;48.776;9.162;2024-03-02T14:33:05;15.90;82.30
292;DHT22;23311;48.776;9.162;2024-03-02T14:35:34;15.80;82.30
292;DHT22;23311;48.776;9.162;2024-03-02T14:38:02;15.80;82.70
292;DHT22;23311;48.776;9.162;2024-03-02T14:40:31;15.80;82.90
292;DHT22;23311;48.776;9.162;2024-03-02T14:42:59;15.90;82.60
292;DHT22;23311;48.776;9.162;2024-03-02T14:45:28;15.80;82.90
292;DHT22;23311;48.776;9.162;2024-03-02T14:47:56;15.80;82.30
292;DHT22;23311;48.776;9.162;2024-03-02T14:50:26;15.90;82.10
292;DHT22;23311;48.776;9.162;2024-03-02T14:52:56;16.00;81.40
292;DHT22;23311;48.776;9.162;2024-03-02T14:55:25;15.90;81.10
292;DHT22;23311;48.776;9.162;2024-03-02T14:57:53;15.90;80.80
292;DHT22;23311;48.776;9.162;2024-03-02T15:00:21;16.00;80.70
292;DHT22;23311;48.776;9.162;2024-03-02T15:02:50;16.00;80.50
292;DHT22;23311;48.776;9.162;2024-03-02T15:05:18;15.90;80.20
292;DHT22;23311;48.776;9.162;2024-03-02T15:07:46;15.90;80.20
292;DHT22;23311;48.776;9.162;2024-03-02T15:10:16;15.90;80.10
292;DHT22;23311;48.776;9.162;2024-03-02T15:12:46;15.80;79.40
292;DHT22;23311;48.776;9.162;2024-03-02T15:15:14;15.70;79.70
292;DHT22;23311;48.776;9.162;2024-03-02T15:17:43;15.70;79.60
292;DHT22;23311;48.776;9.162;2024-03-02T15:20:11;15.60;79.30
292;DHT22;23311;48.776;9.162;2024-03-02T15:22:39;15.50;79.90
292;DHT22;23311;48.776;9.162;2024-03-02T15:25:08;15.40;80.00
292;DHT22;23311;48.776;9.162;2024-03-02T15:27:38;15.40;80.10
292;DHT22;23311;48.776;9.162;2024-03-02T15:30:07;15.30;80.20
292;DHT22;23311;48.776;9.162;2024-03-02T15:32:39;15.20;80.20
292;DHT22;23311;48.776;9.162;2024-03-02T15:35:07;15.10;80.60
292;DHT22;23311;48.776;9.162;2024-03-02T15:37:36;15.10;80.30
292;DHT22;23311;48.776;9.162;2024-03-02T15:40:06;15.00;80.50
292;DHT22;23311;48.776;9.162;2024-03-02T15:42:37;14.90;80.60
292;DHT22;23311;48.776;9.162;2024-03-02T15:45:06;14.80;80.70
292;DHT22;23311;48.776;9.162;2024-03-02T15:47:35;14.80;80.60
292;DHT22;23311;48.776;9.162;2024-03-02T15:50:04;14.80;80.70
292;DHT22;23311;48.776;9.162;2024-03-02T15:52:33;14.80;80.30
292;DHT22;23311;48.776;9.162;2024-03-02T15:55:01;14.70;80.80
292;DHT22;23311;48.776;9.162;2024-03-02T15:57:34;14.60;81.10
292;DHT22;23311;48.776;9.162;2024-03-02T16:00:05;14.50;81.60
292;DHT22;23311;48.776;9.162;2024-03-02T16:02:34;14.50;82.30
292;DHT22;23311;48.776;9.162;2024-03-02T16:05:02;14.40;82.80
292;DHT22;23311;48.776;9.162;2024-03-02T16:07:31;14.30;83.10
292;DHT22;23311;48.776;9.162;2024-03-02T16:09:59;14.30;83.50
292;DHT22;23311;48.776;9.162;2024-03-02T16:12:31;14.20;83.70
292;DHT22;23311;48.776;9.162;2024-03-02T16:15:00;14.20;83.90
292;DHT22;23311;48.776;9.162;2024-03-02T16:17:31;14.10;84.50
292;DHT22;23311;48.776;9.162;2024-03-02T16:19:59;14.00;84.90
292;DHT22;23311;48.776;9.162;2024-03-02T16:22:28;14.00;85.60
292;DHT22;23311;48.776;9.162;2024-03-02T16:24:56;13.90;85.90
292;DHT22;23311;48.776;9.162;2024-03-02T16:27:24;13.90;86.30